Conception, Missouri
Current Conditions -  °F | °C
As of 1:53 AM on Monday 22 Dec 2014 (Local Time) from KSTJ Reporting Station
Overcast Overcast  
Wind Chill: 37°   Ceiling: 1700
Heat Index: 43°   Visibility: 10mi
Dew Point: 38°   Wind: 10mph
Humidity: 82%   Direction: 160°SSE
Pressure: 29.68"   Gusts: NA
Location:  40.24°N, 94.69°W
Report Text: KSTJ 220753Z AUTO 16009KT 10SM OVC017 06/03 A2968 RMK AO2 SLP054 T00610033
Loading
Personal Weather Stations






























Interactive Weather Map New forecast layout! Learn more

10-Day Weather Forecast

Advertisements
Track Severe Weather on mobile